sensor_id;sensor_type;location;lat;lon;timestamp;P1;durP1;ratioP1;P2;durP2;ratioP2
32347;SDS011;18821;44.800;10.326;2023-01-10T00:01:38;15.35;;;8.52;;
32347;SDS011;18821;44.800;10.326;2023-01-10T00:04:04;13.32;;;7.88;;
32347;SDS011;18821;44.800;10.326;2023-01-10T00:06:30;18.67;;;9.18;;
32347;SDS011;18821;44.800;10.326;2023-01-10T00:08:56;16.75;;;8.88;;
32347;SDS011;18821;44.800;10.326;2023-01-10T00:11:23;15.65;;;9.00;;
32347;SDS011;18821;44.800;10.326;2023-01-10T00:14:07;17.40;;;9.05;;
32347;SDS011;18821;44.800;10.326;2023-01-10T00:16:35;17.65;;;9.23;;
32347;SDS011;18821;44.800;10.326;2023-01-10T00:19:04;16.17;;;9.02;;
32347;SDS011;18821;44.800;10.326;2023-01-10T00:21:31;17.83;;;9.13;;
32347;SDS011;18821;44.800;10.326;2023-01-10T00:23:57;16.80;;;9.10;;
32347;SDS011;18821;44.800;10.326;2023-01-10T00:26:33;15.57;;;8.38;;
32347;SDS011;18821;44.800;10.326;2023-01-10T00:28:59;20.25;;;9.10;;
32347;SDS011;18821;44.800;10.326;2023-01-10T00:31:24;20.63;;;9.35;;
32347;SDS011;18821;44.800;10.326;2023-01-10T00:33:50;15.82;;;9.07;;
32347;SDS011;18821;44.800;10.326;2023-01-10T00:36:16;16.33;;;8.68;;
32347;SDS011;18821;44.800;10.326;2023-01-10T00:38:42;15.93;;;8.70;;
32347;SDS011;18821;44.800;10.326;2023-01-10T00:41:08;18.08;;;8.68;;
32347;SDS011;18821;44.800;10.326;2023-01-10T00:43:54;15.18;;;8.88;;
32347;SDS011;18821;44.800;10.326;2023-01-10T00:46:23;16.45;;;9.10;;
32347;SDS011;18821;44.800;10.326;2023-01-10T00:48:50;16.92;;;9.00;;
32347;SDS011;18821;44.800;10.326;2023-01-10T00:51:17;19.52;;;8.27;;
32347;SDS011;18821;44.800;10.326;2023-01-10T00:53:43;16.40;;;8.35;;
32347;SDS011;18821;44.800;10.326;2023-01-10T00:56:09;14.15;;;7.93;;
32347;SDS011;18821;44.800;10.326;2023-01-10T00:58:36;18.70;;;7.90;;
32347;SDS011;18821;44.800;10.326;2023-01-10T01:01:02;19.05;;;8.80;;
32347;SDS011;18821;44.800;10.326;2023-01-10T01:03:28;17.42;;;8.20;;
32347;SDS011;18821;44.800;10.326;2023-01-10T01:05:53;18.02;;;8.40;;
32347;SDS011;18821;44.800;10.326;2023-01-10T01:08:19;15.15;;;8.73;;
32347;SDS011;18821;44.800;10.326;2023-01-10T01:10:45;15.88;;;9.25;;
32347;SDS011;18821;44.800;10.326;2023-01-10T01:13:15;16.08;;;8.60;;
32347;SDS011;18821;44.800;10.326;2023-01-10T01:15:43;18.80;;;9.15;;
32347;SDS011;18821;44.800;10.326;2023-01-10T01:18:14;18.20;;;8.43;;
32347;SDS011;18821;44.800;10.326;2023-01-10T01:20:41;15.52;;;9.00;;
32347;SDS011;18821;44.800;10.326;2023-01-10T01:23:11;15.15;;;7.95;;
32347;SDS011;18821;44.800;10.326;2023-01-10T01:25:38;13.32;;;7.60;;
32347;SDS011;18821;44.800;10.326;2023-01-10T01:28:04;13.70;;;8.20;;
32347;SDS011;18821;44.800;10.326;2023-01-10T01:30:30;17.40;;;8.50;;
32347;SDS011;18821;44.800;10.326;2023-01-10T01:32:56;15.27;;;8.43;;
32347;SDS011;18821;44.800;10.326;2023-01-10T01:35:22;14.15;;;8.60;;
32347;SDS011;18821;44.800;10.326;2023-01-10T01:37:49;14.88;;;8.55;;
32347;SDS011;18821;44.800;10.326;2023-01-10T01:40:16;16.27;;;8.43;;
32347;SDS011;18821;44.800;10.326;2023-01-10T01:42:44;12.40;;;7.72;;
32347;SDS011;18821;44.800;10.326;2023-01-10T01:47:50;14.35;;;8.00;;
32347;SDS011;18821;44.800;10.326;2023-01-10T01:50:22;14.55;;;8.88;;
32347;SDS011;18821;44.800;10.326;2023-01-10T01:52:52;15.13;;;8.68;;
32347;SDS011;18821;44.800;10.326;2023-01-10T01:55:21;17.67;;;8.77;;
32347;SDS011;18821;44.800;10.326;2023-01-10T01:57:51;17.48;;;8.02;;
32347;SDS011;18821;44.800;10.326;2023-01-10T02:00:20;17.05;;;8.23;;
32347;SDS011;18821;44.800;10.326;2023-01-10T02:02:50;19.45;;;8.75;;
32347;SDS011;18821;44.800;10.326;2023-01-10T02:05:19;14.68;;;7.80;;
32347;SDS011;18821;44.800;10.326;2023-01-10T02:07:48;16.45;;;8.40;;
32347;SDS011;18821;44.800;10.326;2023-01-10T02:13:17;14.73;;;8.98;;
32347;SDS011;18821;44.800;10.326;2023-01-10T02:15:46;16.48;;;8.98;;
32347;SDS011;18821;44.800;10.326;2023-01-10T02:18:12;16.00;;;8.73;;
32347;SDS011;18821;44.800;10.326;2023-01-10T02:29:26;11.43;;;6.55;;
32347;SDS011;18821;44.800;10.326;2023-01-10T02:32:31;14.15;;;7.47;;
32347;SDS011;18821;44.800;10.326;2023-01-10T02:40:19;12.93;;;6.70;;
32347;SDS011;18821;44.800;10.326;2023-01-10T02:43:05;11.98;;;6.70;;
32347;SDS011;18821;44.800;10.326;2023-01-10T02:45:55;15.98;;;7.30;;
32347;SDS011;18821;44.800;10.326;2023-01-10T02:48:25;10.57;;;6.05;;
32347;SDS011;18821;44.800;10.326;2023-01-10T02:50:52;11.27;;;6.30;;
32347;SDS011;18821;44.800;10.326;2023-01-10T02:53:37;11.73;;;6.65;;
32347;SDS011;18821;44.800;10.326;2023-01-10T03:02:01;10.43;;;5.65;;
32347;SDS011;18821;44.800;10.326;2023-01-10T03:07:38;14.05;;;4.85;;
32347;SDS011;18821;44.800;10.326;2023-01-10T03:12:50;8.80;;;4.80;;
32347;SDS011;18821;44.800;10.326;2023-01-10T03:15:34;6.57;;;3.80;;
32347;SDS011;18821;44.800;10.326;2023-01-10T03:18:03;6.57;;;3.53;;
32347;SDS011;18821;44.800;10.326;2023-01-10T03:20:33;6.10;;;3.08;;
32347;SDS011;18821;44.800;10.326;2023-01-10T03:23:02;7.78;;;3.53;;
32347;SDS011;18821;44.800;10.326;2023-01-10T03:25:32;5.47;;;3.25;;
32347;SDS011;18821;44.800;10.326;2023-01-10T03:28:03;5.22;;;3.63;;
32347;SDS011;18821;44.800;10.326;2023-01-10T03:33:02;9.02;;;3.08;;
32347;SDS011;18821;44.800;10.326;2023-01-10T03:35:41;7.82;;;3.88;;
32347;SDS011;18821;44.800;10.326;2023-01-10T03:38:20;7.95;;;3.45;;
32347;SDS011;18821;44.800;10.326;2023-01-10T03:40:57;6.57;;;3.30;;
32347;SDS011;18821;44.800;10.326;2023-01-10T03:43:44;6.65;;;3.83;;
32347;SDS011;18821;44.800;10.326;2023-01-10T03:46:40;7.30;;;3.50;;
32347;SDS011;18821;44.800;10.326;2023-01-10T03:49:10;6.93;;;3.53;;
32347;SDS011;18821;44.800;10.326;2023-01-10T03:51:39;7.03;;;3.67;;
32347;SDS011;18821;44.800;10.326;2023-01-10T03:54:06;5.40;;;3.15;;
32347;SDS011;18821;44.800;10.326;2023-01-10T03:56:42;6.32;;;3.83;;
32347;SDS011;18821;44.800;10.326;2023-01-10T03:59:12;7.30;;;4.47;;
32347;SDS011;18821;44.800;10.326;2023-01-10T04:01:38;7.65;;;3.70;;
32347;SDS011;18821;44.800;10.326;2023-01-10T04:04:04;6.35;;;3.55;;
32347;SDS011;18821;44.800;10.326;2023-01-10T04:06:30;6.82;;;3.50;;
32347;SDS011;18821;44.800;10.326;2023-01-10T04:08:55;6.18;;;3.60;;
32347;SDS011;18821;44.800;10.326;2023-01-10T04:11:21;5.38;;;3.33;;
32347;SDS011;18821;44.800;10.326;2023-01-10T04:13:47;4.90;;;3.13;;
32347;SDS011;18821;44.800;10.326;2023-01-10T04:16:13;6.25;;;3.53;;
32347;SDS011;18821;44.800;10.326;2023-01-10T04:18:39;6.03;;;2.83;;
32347;SDS011;18821;44.800;10.326;2023-01-10T04:21:06;5.03;;;2.90;;
32347;SDS011;18821;44.800;10.326;2023-01-10T04:23:31;3.65;;;2.08;;
32347;SDS011;18821;44.800;10.326;2023-01-10T04:25:57;5.32;;;2.67;;
32347;SDS011;18821;44.800;10.326;2023-01-10T04:28:23;3.80;;;2.22;;
32347;SDS011;18821;44.800;10.326;2023-01-10T04:30:49;3.13;;;1.73;;
32347;SDS011;18821;44.800;10.326;2023-01-10T04:33:17;3.28;;;1.80;;
32347;SDS011;18821;44.800;10.326;2023-01-10T04:35:47;4.80;;;1.75;;
32347;SDS011;18821;44.800;10.326;2023-01-10T04:38:14;3.63;;;1.60;;
32347;SDS011;18821;44.800;10.326;2023-01-10T04:40:40;4.50;;;1.70;;
32347;SDS011;18821;44.800;10.326;2023-01-10T04:43:07;2.67;;;0.98;;
32347;SDS011;18821;44.800;10.326;2023-01-10T04:45:33;1.75;;;0.98;;
32347;SDS011;18821;44.800;10.326;2023-01-10T04:47:59;2.53;;;1.08;;
32347;SDS011;18821;44.800;10.326;2023-01-10T04:50:25;1.33;;;0.50;;
32347;SDS011;18821;44.800;10.326;2023-01-10T04:52:53;1.45;;;0.57;;
32347;SDS011;18821;44.800;10.326;2023-01-10T04:55:19;1.35;;;0.70;;
32347;SDS011;18821;44.800;10.326;2023-01-10T04:57:45;0.35;;;0.30;;
32347;SDS011;18821;44.800;10.326;2023-01-10T05:00:11;0.90;;;0.47;;
32347;SDS011;18821;44.800;10.326;2023-01-10T05:02:38;0.60;;;0.40;;
32347;SDS011;18821;44.800;10.326;2023-01-10T05:05:11;0.55;;;0.40;;
32347;SDS011;18821;44.800;10.326;2023-01-10T05:07:39;0.30;;;0.30;;
32347;SDS011;18821;44.800;10.326;2023-01-10T05:10:07;4.85;;;0.60;;
32347;SDS011;18821;44.800;10.326;2023-01-10T05:12:34;0.90;;;0.40;;
32347;SDS011;18821;44.800;10.326;2023-01-10T05:15:00;1.25;;;0.30;;
32347;SDS011;18821;44.800;10.326;2023-01-10T05:17:25;0.70;;;0.40;;
32347;SDS011;18821;44.800;10.326;2023-01-10T05:19:51;0.52;;;0.40;;
32347;SDS011;18821;44.800;10.326;2023-01-10T05:22:17;0.57;;;0.28;;
32347;SDS011;18821;44.800;10.326;2023-01-10T05:24:43;0.68;;;0.38;;
32347;SDS011;18821;44.800;10.326;2023-01-10T05:27:09;1.33;;;0.30;;
32347;SDS011;18821;44.800;10.326;2023-01-10T05:29:35;0.98;;;0.40;;
32347;SDS011;18821;44.800;10.326;2023-01-10T05:32:02;0.85;;;0.30;;
32347;SDS011;18821;44.800;10.326;2023-01-10T05:34:28;0.85;;;0.60;;
32347;SDS011;18821;44.800;10.326;2023-01-10T05:36:54;0.20;;;0.20;;
32347;SDS011;18821;44.800;10.326;2023-01-10T05:39:22;0.57;;;0.30;;
32347;SDS011;18821;44.800;10.326;2023-01-10T05:41:48;3.72;;;0.38;;
32347;SDS011;18821;44.800;10.326;2023-01-10T05:44:14;0.90;;;0.30;;
32347;SDS011;18821;44.800;10.326;2023-01-10T05:46:41;0.30;;;0.30;;
32347;SDS011;18821;44.800;10.326;2023-01-10T05:49:06;0.30;;;0.20;;
32347;SDS011;18821;44.800;10.326;2023-01-10T05:51:32;1.95;;;0.30;;
32347;SDS011;18821;44.800;10.326;2023-01-10T05:53:58;0.52;;;0.40;;
32347;SDS011;18821;44.800;10.326;2023-01-10T05:56:24;2.65;;;0.40;;
32347;SDS011;18821;44.800;10.326;2023-01-10T05:58:50;3.00;;;0.40;;
32347;SDS011;18821;44.800;10.326;2023-01-10T06:01:17;0.70;;;0.35;;
32347;SDS011;18821;44.800;10.326;2023-01-10T06:03:43;4.57;;;0.40;;
32347;SDS011;18821;44.800;10.326;2023-01-10T06:06:09;6.78;;;0.35;;
32347;SDS011;18821;44.800;10.326;2023-01-10T06:08:35;0.45;;;0.32;;
32347;SDS011;18821;44.800;10.326;2023-01-10T06:11:02;0.68;;;0.47;;
32347;SDS011;18821;44.800;10.326;2023-01-10T06:13:28;1.38;;;0.40;;
32347;SDS011;18821;44.800;10.326;2023-01-10T06:15:54;0.45;;;0.30;;
32347;SDS011;18821;44.800;10.326;2023-01-10T06:18:20;3.35;;;0.50;;
32347;SDS011;18821;44.800;10.326;2023-01-10T06:20:46;4.35;;;0.40;;
32347;SDS011;18821;44.800;10.326;2023-01-10T06:23:12;0.30;;;0.20;;
32347;SDS011;18821;44.800;10.326;2023-01-10T06:25:38;0.38;;;0.32;;
32347;SDS011;18821;44.800;10.326;2023-01-10T06:28:06;2.28;;;0.40;;
32347;SDS011;18821;44.800;10.326;2023-01-10T06:30:33;2.90;;;0.50;;
32347;SDS011;18821;44.800;10.326;2023-01-10T06:33:03;7.47;;;0.40;;
32347;SDS011;18821;44.800;10.326;2023-01-10T06:35:31;0.45;;;0.25;;
32347;SDS011;18821;44.800;10.326;2023-01-10T06:37:58;0.35;;;0.30;;
32347;SDS011;18821;44.800;10.326;2023-01-10T06:40:24;2.70;;;0.52;;
32347;SDS011;18821;44.800;10.326;2023-01-10T06:42:50;2.30;;;0.40;;
32347;SDS011;18821;44.800;10.326;2023-01-10T06:45:16;1.35;;;0.30;;
32347;SDS011;18821;44.800;10.326;2023-01-10T06:47:44;5.03;;;0.40;;
32347;SDS011;18821;44.800;10.326;2023-01-10T06:50:10;3.58;;;1.25;;
32347;SDS011;18821;44.800;10.326;2023-01-10T06:52:39;2.50;;;0.82;;
32347;SDS011;18821;44.800;10.326;2023-01-10T06:55:06;5.80;;;0.70;;
32347;SDS011;18821;44.800;10.326;2023-01-10T06:57:32;1.05;;;0.50;;
32347;SDS011;18821;44.800;10.326;2023-01-10T07:00:01;1.77;;;0.47;;
32347;SDS011;18821;44.800;10.326;2023-01-10T07:02:28;1.25;;;0.40;;
32347;SDS011;18821;44.800;10.326;2023-01-10T07:04:54;2.83;;;0.40;;
32347;SDS011;18821;44.800;10.326;2023-01-10T07:07:20;0.20;;;0.20;;
32347;SDS011;18821;44.800;10.326;2023-01-10T07:09:46;1.85;;;0.50;;
32347;SDS011;18821;44.800;10.326;2023-01-10T07:12:11;0.45;;;0.45;;
32347;SDS011;18821;44.800;10.326;2023-01-10T07:14:38;0.88;;;0.50;;
32347;SDS011;18821;44.800;10.326;2023-01-10T07:17:05;2.15;;;0.32;;
32347;SDS011;18821;44.800;10.326;2023-01-10T07:19:31;0.65;;;0.40;;
32347;SDS011;18821;44.800;10.326;2023-01-10T07:21:57;1.92;;;0.82;;
32347;SDS011;18821;44.800;10.326;2023-01-10T07:24:24;0.30;;;0.25;;
32347;SDS011;18821;44.800;10.326;2023-01-10T07:26:53;0.50;;;0.30;;
32347;SDS011;18821;44.800;10.326;2023-01-10T07:29:20;0.68;;;0.50;;
32347;SDS011;18821;44.800;10.326;2023-01-10T07:31:47;1.73;;;0.57;;
32347;SDS011;18821;44.800;10.326;2023-01-10T07:34:12;14.48;;;1.58;;
32347;SDS011;18821;44.800;10.326;2023-01-10T07:36:38;3.38;;;0.43;;
32347;SDS011;18821;44.800;10.326;2023-01-10T07:39:04;0.88;;;0.30;;
32347;SDS011;18821;44.800;10.326;2023-01-10T07:41:30;0.65;;;0.55;;
32347;SDS011;18821;44.800;10.326;2023-01-10T07:43:57;0.40;;;0.30;;
32347;SDS011;18821;44.800;10.326;2023-01-10T07:46:23;0.80;;;0.50;;
32347;SDS011;18821;44.800;10.326;2023-01-10T07:48:50;1.50;;;0.55;;
32347;SDS011;18821;44.800;10.326;2023-01-10T07:51:16;0.73;;;0.57;;
32347;SDS011;18821;44.800;10.326;2023-01-10T07:53:42;2.45;;;0.50;;
32347;SDS011;18821;44.800;10.326;2023-01-10T07:56:08;6.65;;;0.40;;
32347;SDS011;18821;44.800;10.326;2023-01-10T07:58:34;1.27;;;0.40;;
32347;SDS011;18821;44.800;10.326;2023-01-10T08:01:01;1.30;;;0.43;;
32347;SDS011;18821;44.800;10.326;2023-01-10T08:03:28;1.23;;;0.50;;
32347;SDS011;18821;44.800;10.326;2023-01-10T08:05:58;2.70;;;0.30;;
32347;SDS011;18821;44.800;10.326;2023-01-10T08:08:25;0.20;;;0.20;;
32347;SDS011;18821;44.800;10.326;2023-01-10T08:10:52;3.15;;;0.82;;
32347;SDS011;18821;44.800;10.326;2023-01-10T08:13:18;7.57;;;0.60;;
32347;SDS011;18821;44.800;10.326;2023-01-10T08:15:44;1.35;;;0.40;;
32347;SDS011;18821;44.800;10.326;2023-01-10T08:18:11;3.22;;;0.77;;
32347;SDS011;18821;44.800;10.326;2023-01-10T08:20:37;0.98;;;0.50;;
32347;SDS011;18821;44.800;10.326;2023-01-10T08:23:03;2.22;;;0.57;;
32347;SDS011;18821;44.800;10.326;2023-01-10T08:25:29;1.38;;;0.50;;
32347;SDS011;18821;44.800;10.326;2023-01-10T08:27:55;1.15;;;0.40;;
32347;SDS011;18821;44.800;10.326;2023-01-10T08:30:20;1.67;;;0.70;;
32347;SDS011;18821;44.800;10.326;2023-01-10T08:32:47;0.85;;;0.35;;
32347;SDS011;18821;44.800;10.326;2023-01-10T08:35:13;0.55;;;0.30;;
32347;SDS011;18821;44.800;10.326;2023-01-10T08:37:39;0.95;;;0.40;;
32347;SDS011;18821;44.800;10.326;2023-01-10T08:40:05;2.85;;;0.35;;
32347;SDS011;18821;44.800;10.326;2023-01-10T08:42:32;1.27;;;0.70;;
32347;SDS011;18821;44.800;10.326;2023-01-10T08:44:58;0.60;;;0.50;;
32347;SDS011;18821;44.800;10.326;2023-01-10T08:47:25;0.47;;;0.38;;
32347;SDS011;18821;44.800;10.326;2023-01-10T08:49:52;1.85;;;0.85;;
32347;SDS011;18821;44.800;10.326;2023-01-10T08:52:17;0.35;;;0.32;;
32347;SDS011;18821;44.800;10.326;2023-01-10T08:54:43;0.35;;;0.30;;
32347;SDS011;18821;44.800;10.326;2023-01-10T08:57:09;0.75;;;0.22;;
32347;SDS011;18821;44.800;10.326;2023-01-10T08:59:36;4.75;;;0.50;;
32347;SDS011;18821;44.800;10.326;2023-01-10T09:02:02;0.90;;;0.40;;
32347;SDS011;18821;44.800;10.326;2023-01-10T09:04:29;2.97;;;0.32;;
32347;SDS011;18821;44.800;10.326;2023-01-10T09:06:56;1.25;;;0.80;;
32347;SDS011;18821;44.800;10.326;2023-01-10T09:09:22;0.57;;;0.35;;
32347;SDS011;18821;44.800;10.326;2023-01-10T09:11:48;1.60;;;0.60;;
32347;SDS011;18821;44.800;10.326;2023-01-10T09:14:14;0.95;;;0.50;;
32347;SDS011;18821;44.800;10.326;2023-01-10T09:16:40;0.63;;;0.30;;
32347;SDS011;18821;44.800;10.326;2023-01-10T09:19:06;9.15;;;0.45;;
32347;SDS011;18821;44.800;10.326;2023-01-10T09:21:32;0.90;;;0.30;;
32347;SDS011;18821;44.800;10.326;2023-01-10T09:23:58;0.38;;;0.30;;
32347;SDS011;18821;44.800;10.326;2023-01-10T09:26:24;0.38;;;0.10;;
32347;SDS011;18821;44.800;10.326;2023-01-10T09:28:50;0.68;;;0.47;;
32347;SDS011;18821;44.800;10.326;2023-01-10T09:31:16;0.25;;;0.20;;
32347;SDS011;18821;44.800;10.326;2023-01-10T09:33:42;1.35;;;0.50;;
32347;SDS011;18821;44.800;10.326;2023-01-10T09:36:08;1.60;;;0.40;;
32347;SDS011;18821;44.800;10.326;2023-01-10T09:38:35;0.32;;;0.30;;
32347;SDS011;18821;44.800;10.326;2023-01-10T09:49:11;3.45;;;0.32;;
32347;SDS011;18821;44.800;10.326;2023-01-10T09:51:58;2.65;;;0.50;;
32347;SDS011;18821;44.800;10.326;2023-01-10T09:54:51;3.05;;;0.40;;
32347;SDS011;18821;44.800;10.326;2023-01-10T09:57:21;2.72;;;0.40;;
32347;SDS011;18821;44.800;10.326;2023-01-10T09:59:48;2.10;;;0.50;;
32347;SDS011;18821;44.800;10.326;2023-01-10T10:02:21;1.10;;;0.50;;
32347;SDS011;18821;44.800;10.326;2023-01-10T10:05:15;0.17;;;0.15;;
32347;SDS011;18821;44.800;10.326;2023-01-10T10:07:49;1.23;;;0.45;;
32347;SDS011;18821;44.800;10.326;2023-01-10T10:10:35;0.90;;;0.30;;
32347;SDS011;18821;44.800;10.326;2023-01-10T10:13:17;0.22;;;0.22;;
32347;SDS011;18821;44.800;10.326;2023-01-10T10:36:29;0.80;;;0.43;;
32347;SDS011;18821;44.800;10.326;2023-01-10T10:38:29;1.40;;;0.50;;
32347;SDS011;18821;44.800;10.326;2023-01-10T10:40:59;0.32;;;0.30;;
32347;SDS011;18821;44.800;10.326;2023-01-10T10:43:30;0.40;;;0.40;;
32347;SDS011;18821;44.800;10.326;2023-01-10T10:46:00;0.80;;;0.22;;
32347;SDS011;18821;44.800;10.326;2023-01-10T10:48:32;0.73;;;0.40;;
32347;SDS011;18821;44.800;10.326;2023-01-10T10:51:06;1.33;;;0.30;;
32347;SDS011;18821;44.800;10.326;2023-01-10T10:53:49;1.80;;;0.50;;
32347;SDS011;18821;44.800;10.326;2023-01-10T10:56:16;1.20;;;0.40;;
32347;SDS011;18821;44.800;10.326;2023-01-10T10:58:47;2.15;;;0.50;;
32347;SDS011;18821;44.800;10.326;2023-01-10T11:01:15;0.52;;;0.30;;
32347;SDS011;18821;44.800;10.326;2023-01-10T11:06:11;4.03;;;0.47;;
32347;SDS011;18821;44.800;10.326;2023-01-10T11:08:40;0.95;;;0.20;;
32347;SDS011;18821;44.800;10.326;2023-01-10T11:11:17;0.28;;;0.20;;
32347;SDS011;18821;44.800;10.326;2023-01-10T11:13:54;1.30;;;0.30;;
32347;SDS011;18821;44.800;10.326;2023-01-10T11:19:28;1.08;;;0.52;;
32347;SDS011;18821;44.800;10.326;2023-01-10T11:24:33;1.17;;;0.50;;
32347;SDS011;18821;44.800;10.326;2023-01-10T11:27:18;0.30;;;0.30;;
32347;SDS011;18821;44.800;10.326;2023-01-10T11:29:48;1.42;;;0.60;;
32347;SDS011;18821;44.800;10.326;2023-01-10T11:32:17;1.52;;;0.50;;
32347;SDS011;18821;44.800;10.326;2023-01-10T11:34:54;0.68;;;0.32;;
32347;SDS011;18821;44.800;10.326;2023-01-10T11:37:29;2.00;;;0.40;;
32347;SDS011;18821;44.800;10.326;2023-01-10T11:42:51;3.03;;;0.40;;
32347;SDS011;18821;44.800;10.326;2023-01-10T11:45:23;4.78;;;0.57;;
32347;SDS011;18821;44.800;10.326;2023-01-10T11:48:06;4.10;;;0.70;;
32347;SDS011;18821;44.800;10.326;2023-01-10T11:50:36;0.20;;;0.20;;
32347;SDS011;18821;44.800;10.326;2023-01-10T11:53:04;0.90;;;0.57;;
32347;SDS011;18821;44.800;10.326;2023-01-10T11:55:33;1.15;;;0.40;;
32347;SDS011;18821;44.800;10.326;2023-01-10T11:58:06;1.08;;;0.50;;
32347;SDS011;18821;44.800;10.326;2023-01-10T12:00:47;4.85;;;0.40;;
32347;SDS011;18821;44.800;10.326;2023-01-10T12:03:16;2.10;;;0.65;;
32347;SDS011;18821;44.800;10.326;2023-01-10T12:05:52;1.45;;;0.60;;
32347;SDS011;18821;44.800;10.326;2023-01-10T12:08:28;2.60;;;0.60;;
32347;SDS011;18821;44.800;10.326;2023-01-10T12:11:05;2.85;;;0.40;;
32347;SDS011;18821;44.800;10.326;2023-01-10T12:13:46;1.45;;;0.55;;
32347;SDS011;18821;44.800;10.326;2023-01-10T12:16:18;2.13;;;0.50;;
32347;SDS011;18821;44.800;10.326;2023-01-10T12:18:58;1.55;;;0.43;;
32347;SDS011;18821;44.800;10.326;2023-01-10T12:21:40;1.00;;;0.60;;
32347;SDS011;18821;44.800;10.326;2023-01-10T12:24:14;0.50;;;0.40;;
32347;SDS011;18821;44.800;10.326;2023-01-10T12:26:45;1.10;;;0.65;;
32347;SDS011;18821;44.800;10.326;2023-01-10T12:29:16;1.35;;;0.45;;
32347;SDS011;18821;44.800;10.326;2023-01-10T12:31:50;3.22;;;0.60;;
32347;SDS011;18821;44.800;10.326;2023-01-10T12:34:19;0.55;;;0.30;;
32347;SDS011;18821;44.800;10.326;2023-01-10T12:39:30;0.85;;;0.60;;
32347;SDS011;18821;44.800;10.326;2023-01-10T12:45:00;1.40;;;0.65;;
32347;SDS011;18821;44.800;10.326;2023-01-10T12:50:13;1.75;;;0.70;;
32347;SDS011;18821;44.800;10.326;2023-01-10T12:52:51;0.45;;;0.32;;
32347;SDS011;18821;44.800;10.326;2023-01-10T12:55:25;3.10;;;0.33;;
32347;SDS011;18821;44.800;10.326;2023-01-10T12:57:55;0.75;;;0.63;;
32347;SDS011;18821;44.800;10.326;2023-01-10T13:00:39;3.47;;;0.77;;
32347;SDS011;18821;44.800;10.326;2023-01-10T13:03:15;3.60;;;0.60;;
32347;SDS011;18821;44.800;10.326;2023-01-10T13:05:46;3.42;;;0.38;;
32347;SDS011;18821;44.800;10.326;2023-01-10T13:08:17;3.10;;;0.68;;
32347;SDS011;18821;44.800;10.326;2023-01-10T13:10:47;3.78;;;0.93;;
32347;SDS011;18821;44.800;10.326;2023-01-10T13:19:35;1.70;;;0.57;;
32347;SDS011;18821;44.800;10.326;2023-01-10T13:21:37;2.72;;;0.40;;
32347;SDS011;18821;44.800;10.326;2023-01-10T13:24:05;0.70;;;0.70;;
32347;SDS011;18821;44.800;10.326;2023-01-10T13:29:17;1.70;;;1.10;;
32347;SDS011;18821;44.800;10.326;2023-01-10T13:31:55;1.13;;;0.50;;
32347;SDS011;18821;44.800;10.326;2023-01-10T13:34:24;2.15;;;0.40;;
32347;SDS011;18821;44.800;10.326;2023-01-10T13:36:57;1.05;;;0.57;;
32347;SDS011;18821;44.800;10.326;2023-01-10T13:39:41;1.30;;;0.60;;
32347;SDS011;18821;44.800;10.326;2023-01-10T13:42:25;1.55;;;0.50;;
32347;SDS011;18821;44.800;10.326;2023-01-10T13:52:52;0.43;;;0.30;;
32347;SDS011;18821;44.800;10.326;2023-01-10T14:00:52;3.92;;;0.40;;
32347;SDS011;18821;44.800;10.326;2023-01-10T14:03:47;0.50;;;0.40;;
32347;SDS011;18821;44.800;10.326;2023-01-10T14:06:32;0.88;;;0.38;;
32347;SDS011;18821;44.800;10.326;2023-01-10T14:14:25;1.48;;;0.60;;
32347;SDS011;18821;44.800;10.326;2023-01-10T14:17:13;1.48;;;0.80;;
32347;SDS011;18821;44.800;10.326;2023-01-10T14:19:44;0.90;;;0.40;;
32347;SDS011;18821;44.800;10.326;2023-01-10T14:22:32;1.55;;;0.60;;
32347;SDS011;18821;44.800;10.326;2023-01-10T14:25:00;1.02;;;0.70;;
32347;SDS011;18821;44.800;10.326;2023-01-10T14:27:50;1.15;;;0.40;;
32347;SDS011;18821;44.800;10.326;2023-01-10T14:30:17;3.38;;;0.68;;
32347;SDS011;18821;44.800;10.326;2023-01-10T14:32:50;4.07;;;0.75;;
32347;SDS011;18821;44.800;10.326;2023-01-10T14:35:20;2.28;;;0.57;;
32347;SDS011;18821;44.800;10.326;2023-01-10T14:37:53;1.42;;;0.45;;
32347;SDS011;18821;44.800;10.326;2023-01-10T14:40:42;1.02;;;0.52;;
32347;SDS011;18821;44.800;10.326;2023-01-10T14:43:12;4.05;;;0.90;;
32347;SDS011;18821;44.800;10.326;2023-01-10T14:48:21;7.43;;;0.63;;
32347;SDS011;18821;44.800;10.326;2023-01-10T14:50:51;4.32;;;0.77;;
32347;SDS011;18821;44.800;10.326;2023-01-10T14:53:25;3.35;;;0.50;;
32347;SDS011;18821;44.800;10.326;2023-01-10T14:55:53;1.98;;;0.45;;
32347;SDS011;18821;44.800;10.326;2023-01-10T14:58:18;0.77;;;0.40;;
32347;SDS011;18821;44.800;10.326;2023-01-10T15:00:46;4.50;;;0.98;;
32347;SDS011;18821;44.800;10.326;2023-01-10T15:03:18;5.28;;;0.70;;
32347;SDS011;18821;44.800;10.326;2023-01-10T15:05:50;1.25;;;0.60;;
32347;SDS011;18821;44.800;10.326;2023-01-10T15:08:28;3.85;;;0.93;;
32347;SDS011;18821;44.800;10.326;2023-01-10T15:10:57;2.55;;;0.70;;
32347;SDS011;18821;44.800;10.326;2023-01-10T15:13:28;2.53;;;0.70;;
32347;SDS011;18821;44.800;10.326;2023-01-10T15:15:58;22.17;;;12.07;;
32347;SDS011;18821;44.800;10.326;2023-01-10T15:21:03;7.35;;;1.02;;
32347;SDS011;18821;44.800;10.326;2023-01-10T15:23:34;4.25;;;0.88;;
32347;SDS011;18821;44.800;10.326;2023-01-10T15:26:02;8.05;;;1.15;;
32347;SDS011;18821;44.800;10.326;2023-01-10T15:28:34;1.05;;;0.68;;
32347;SDS011;18821;44.800;10.326;2023-01-10T15:31:04;5.30;;;1.38;;
32347;SDS011;18821;44.800;10.326;2023-01-10T15:33:33;4.82;;;1.20;;
32347;SDS011;18821;44.800;10.326;2023-01-10T15:38:31;2.53;;;0.85;;
32347;SDS011;18821;44.800;10.326;2023-01-10T15:41:00;2.15;;;1.10;;
32347;SDS011;18821;44.800;10.326;2023-01-10T15:43:29;1.08;;;0.77;;
32347;SDS011;18821;44.800;10.326;2023-01-10T15:45:57;5.25;;;1.58;;
32347;SDS011;18821;44.800;10.326;2023-01-10T15:51:01;8.23;;;1.27;;
32347;SDS011;18821;44.800;10.326;2023-01-10T15:53:56;4.47;;;1.38;;
32347;SDS011;18821;44.800;10.326;2023-01-10T15:56:41;3.13;;;0.90;;
32347;SDS011;18821;44.800;10.326;2023-01-10T16:04:35;1.52;;;0.82;;
32347;SDS011;18821;44.800;10.326;2023-01-10T16:07:20;2.35;;;0.98;;
32347;SDS011;18821;44.800;10.326;2023-01-10T16:15:20;1.77;;;1.00;;
32347;SDS011;18821;44.800;10.326;2023-01-10T16:17:48;2.10;;;1.00;;
32347;SDS011;18821;44.800;10.326;2023-01-10T16:20:15;3.97;;;1.20;;
32347;SDS011;18821;44.800;10.326;2023-01-10T16:22:53;3.97;;;1.50;;
32347;SDS011;18821;44.800;10.326;2023-01-10T16:25:25;5.32;;;1.70;;
32347;SDS011;18821;44.800;10.326;2023-01-10T16:27:57;4.25;;;1.33;;
32347;SDS011;18821;44.800;10.326;2023-01-10T16:30:24;2.40;;;1.00;;
32347;SDS011;18821;44.800;10.326;2023-01-10T16:32:51;1.70;;;0.98;;
32347;SDS011;18821;44.800;10.326;2023-01-10T16:35:18;4.05;;;1.00;;
32347;SDS011;18821;44.800;10.326;2023-01-10T16:37:45;2.38;;;1.13;;
32347;SDS011;18821;44.800;10.326;2023-01-10T16:42:54;5.57;;;1.10;;
32347;SDS011;18821;44.800;10.326;2023-01-10T16:45:39;3.65;;;1.35;;
32347;SDS011;18821;44.800;10.326;2023-01-10T16:48:05;3.47;;;1.10;;
32347;SDS011;18821;44.800;10.326;2023-01-10T16:50:31;3.38;;;1.10;;
32347;SDS011;18821;44.800;10.326;2023-01-10T16:52:57;4.63;;;0.93;;
32347;SDS011;18821;44.800;10.326;2023-01-10T16:55:32;2.65;;;1.00;;
32347;SDS011;18821;44.800;10.326;2023-01-10T16:58:03;3.17;;;1.30;;
32347;SDS011;18821;44.800;10.326;2023-01-10T17:00:29;3.90;;;1.30;;